sensor_id;sensor_type;location;lat;lon;timestamp;temperature;humidity
35463;DHT22;21578;47.892;9.970;2023-07-30T00:01:59;16.90;96.60
35463;DHT22;21578;47.892;9.970;2023-07-30T00:06:46;16.90;96.60
35463;DHT22;21578;47.892;9.970;2023-07-30T00:11:33;16.90;96.60
35463;DHT22;21578;47.892;9.970;2023-07-30T00:16:22;16.90;96.60
35463;DHT22;21578;47.892;9.970;2023-07-30T00:21:13;16.80;96.60
35463;DHT22;21578;47.892;9.970;2023-07-30T00:26:00;16.80;96.60
35463;DHT22;21578;47.892;9.970;2023-07-30T00:30:47;16.80;96.60
35463;DHT22;21578;47.892;9.970;2023-07-30T00:35:34;16.80;96.60
35463;DHT22;21578;47.892;9.970;2023-07-30T00:40:23;16.80;96.60
35463;DHT22;21578;47.892;9.970;2023-07-30T00:45:10;16.80;96.60
35463;DHT22;21578;47.892;9.970;2023-07-30T00:50:01;16.80;96.60
35463;DHT22;21578;47.892;9.970;2023-07-30T00:54:48;16.70;96.60
35463;DHT22;21578;47.892;9.970;2023-07-30T00:59:37;16.70;96.60
35463;DHT22;21578;47.892;9.970;2023-07-30T01:04:24;16.80;96.60
35463;DHT22;21578;47.892;9.970;2023-07-30T01:09:11;16.80;96.60
35463;DHT22;21578;47.892;9.970;2023-07-30T01:13:59;16.90;96.60
35463;DHT22;21578;47.892;9.970;2023-07-30T01:18:47;16.80;96.60
35463;DHT22;21578;47.892;9.970;2023-07-30T01:23:36;16.90;96.60
35463;DHT22;21578;47.892;9.970;2023-07-30T01:28:23;16.90;96.60
35463;DHT22;21578;47.892;9.970;2023-07-30T01:33:10;17.10;96.60
35463;DHT22;21578;47.892;9.970;2023-07-30T01:37:58;17.00;96.60
35463;DHT22;21578;47.892;9.970;2023-07-30T01:42:52;17.00;96.60
35463;DHT22;21578;47.892;9.970;2023-07-30T01:47:40;16.80;96.60
35463;DHT22;21578;47.892;9.970;2023-07-30T01:52:28;16.80;96.60
35463;DHT22;21578;47.892;9.970;2023-07-30T01:57:15;16.90;96.60
35463;DHT22;21578;47.892;9.970;2023-07-30T02:02:04;16.80;96.60
35463;DHT22;21578;47.892;9.970;2023-07-30T02:06:52;16.80;96.60
35463;DHT22;21578;47.892;9.970;2023-07-30T02:11:39;16.70;96.60
35463;DHT22;21578;47.892;9.970;2023-07-30T02:16:27;16.80;96.60
35463;DHT22;21578;47.892;9.970;2023-07-30T02:21:15;16.70;96.60
35463;DHT22;21578;47.892;9.970;2023-07-30T02:26:02;16.70;96.60
35463;DHT22;21578;47.892;9.970;2023-07-30T02:30:49;16.60;96.60
35463;DHT22;21578;47.892;9.970;2023-07-30T02:35:36;16.60;96.60
35463;DHT22;21578;47.892;9.970;2023-07-30T02:40:25;16.50;96.60
35463;DHT22;21578;47.892;9.970;2023-07-30T02:45:15;16.50;96.60
35463;DHT22;21578;47.892;9.970;2023-07-30T02:50:04;16.40;96.60
35463;DHT22;21578;47.892;9.970;2023-07-30T02:54:52;16.40;96.60
35463;DHT22;21578;47.892;9.970;2023-07-30T02:59:41;16.40;96.60
35463;DHT22;21578;47.892;9.970;2023-07-30T03:04:28;16.40;96.60
35463;DHT22;21578;47.892;9.970;2023-07-30T03:09:15;16.30;96.60
35463;DHT22;21578;47.892;9.970;2023-07-30T03:14:02;16.20;96.60
35463;DHT22;21578;47.892;9.970;2023-07-30T03:18:50;16.20;96.60
35463;DHT22;21578;47.892;9.970;2023-07-30T03:23:39;16.20;96.60
35463;DHT22;21578;47.892;9.970;2023-07-30T03:28:28;16.20;96.60
35463;DHT22;21578;47.892;9.970;2023-07-30T03:33:15;16.20;96.60
35463;DHT22;21578;47.892;9.970;2023-07-30T03:38:05;16.40;96.60
35463;DHT22;21578;47.892;9.970;2023-07-30T03:42:51;16.20;96.60
35463;DHT22;21578;47.892;9.970;2023-07-30T03:47:38;16.20;96.60
35463;DHT22;21578;47.892;9.970;2023-07-30T03:52:27;16.20;96.60
35463;DHT22;21578;47.892;9.970;2023-07-30T03:57:16;16.20;96.60
35463;DHT22;21578;47.892;9.970;2023-07-30T04:02:06;16.10;96.60
35463;DHT22;21578;47.892;9.970;2023-07-30T06:26:29;17.80;96.60
35463;DHT22;21578;47.892;9.970;2023-07-30T06:31:16;17.90;96.60
35463;DHT22;21578;47.892;9.970;2023-07-30T06:36:03;18.00;96.60
35463;DHT22;21578;47.892;9.970;2023-07-30T06:40:51;18.10;96.60
35463;DHT22;21578;47.892;9.970;2023-07-30T06:45:39;18.20;96.60
35463;DHT22;21578;47.892;9.970;2023-07-30T06:50:26;18.30;96.60
35463;DHT22;21578;47.892;9.970;2023-07-30T06:55:14;18.30;96.60
35463;DHT22;21578;47.892;9.970;2023-07-30T07:00:01;18.40;96.60
35463;DHT22;21578;47.892;9.970;2023-07-30T07:04:51;18.50;96.60
35463;DHT22;21578;47.892;9.970;2023-07-30T07:09:38;18.60;96.60
35463;DHT22;21578;47.892;9.970;2023-07-30T07:14:25;18.80;96.60
35463;DHT22;21578;47.892;9.970;2023-07-30T07:19:12;18.80;96.60
35463;DHT22;21578;47.892;9.970;2023-07-30T07:24:00;18.90;96.60
35463;DHT22;21578;47.892;9.970;2023-07-30T07:28:47;18.90;96.60
35463;DHT22;21578;47.892;9.970;2023-07-30T07:33:34;18.80;96.60
35463;DHT22;21578;47.892;9.970;2023-07-30T07:38:22;18.90;96.60
35463;DHT22;21578;47.892;9.970;2023-07-30T07:43:11;19.00;96.60
35463;DHT22;21578;47.892;9.970;2023-07-30T07:47:58;19.30;96.60
35463;DHT22;21578;47.892;9.970;2023-07-30T07:52:45;19.30;96.60
35463;DHT22;21578;47.892;9.970;2023-07-30T07:57:32;19.30;96.60
35463;DHT22;21578;47.892;9.970;2023-07-30T08:02:22;19.30;96.60
35463;DHT22;21578;47.892;9.970;2023-07-30T08:07:09;19.40;96.60
35463;DHT22;21578;47.892;9.970;2023-07-30T08:11:56;19.50;96.60
35463;DHT22;21578;47.892;9.970;2023-07-30T08:16:43;19.60;96.60
35463;DHT22;21578;47.892;9.970;2023-07-30T08:21:32;19.60;96.60
35463;DHT22;21578;47.892;9.970;2023-07-30T08:26:19;19.70;96.60
35463;DHT22;21578;47.892;9.970;2023-07-30T08:31:05;19.90;96.60
35463;DHT22;21578;47.892;9.970;2023-07-30T08:35:54;20.00;96.60
35463;DHT22;21578;47.892;9.970;2023-07-30T08:40:43;20.10;96.60
35463;DHT22;21578;47.892;9.970;2023-07-30T08:45:30;20.20;96.60
35463;DHT22;21578;47.892;9.970;2023-07-30T08:50:17;20.20;96.60
35463;DHT22;21578;47.892;9.970;2023-07-30T08:55:05;20.30;96.40
35463;DHT22;21578;47.892;9.970;2023-07-30T09:00:00;20.30;96.10
35463;DHT22;21578;47.892;9.970;2023-07-30T09:04:53;20.40;94.30
35463;DHT22;21578;47.892;9.970;2023-07-30T09:09:43;20.40;95.40
35463;DHT22;21578;47.892;9.970;2023-07-30T09:14:30;20.60;94.30
35463;DHT22;21578;47.892;9.970;2023-07-30T09:19:18;20.70;91.40
35463;DHT22;21578;47.892;9.970;2023-07-30T09:24:05;20.70;90.80
35463;DHT22;21578;47.892;9.970;2023-07-30T09:28:52;20.70;89.30
35463;DHT22;21578;47.892;9.970;2023-07-30T09:33:42;20.90;91.60
35463;DHT22;21578;47.892;9.970;2023-07-30T09:38:30;21.10;91.90
35463;DHT22;21578;47.892;9.970;2023-07-30T09:43:18;21.20;87.70
35463;DHT22;21578;47.892;9.970;2023-07-30T09:48:05;21.20;89.00
35463;DHT22;21578;47.892;9.970;2023-07-30T09:52:53;21.00;89.10
35463;DHT22;21578;47.892;9.970;2023-07-30T09:57:42;20.80;89.50
35463;DHT22;21578;47.892;9.970;2023-07-30T10:02:29;21.10;90.20
35463;DHT22;21578;47.892;9.970;2023-07-30T10:07:20;21.40;85.40
35463;DHT22;21578;47.892;9.970;2023-07-30T10:12:09;21.50;80.90
35463;DHT22;21578;47.892;9.970;2023-07-30T10:16:59;21.70;84.60
35463;DHT22;21578;47.892;9.970;2023-07-30T10:21:46;21.60;84.30
35463;DHT22;21578;47.892;9.970;2023-07-30T10:26:35;21.80;83.70
35463;DHT22;21578;47.892;9.970;2023-07-30T10:31:38;21.70;84.80
35463;DHT22;21578;47.892;9.970;2023-07-30T10:36:31;22.00;85.50
35463;DHT22;21578;47.892;9.970;2023-07-30T10:41:19;21.70;83.80
35463;DHT22;21578;47.892;9.970;2023-07-30T10:46:07;21.70;85.40
35463;DHT22;21578;47.892;9.970;2023-07-30T11:01:18;22.30;84.60
35463;DHT22;21578;47.892;9.970;2023-07-30T11:11:57;22.60;82.30
35463;DHT22;21578;47.892;9.970;2023-07-30T11:16:48;22.80;81.30
35463;DHT22;21578;47.892;9.970;2023-07-30T11:21:44;22.80;79.80
35463;DHT22;21578;47.892;9.970;2023-07-30T11:26:41;23.00;80.70
35463;DHT22;21578;47.892;9.970;2023-07-30T11:31:28;22.80;79.60
35463;DHT22;21578;47.892;9.970;2023-07-30T11:36:17;22.70;80.50
35463;DHT22;21578;47.892;9.970;2023-07-30T11:41:05;22.90;81.80
35463;DHT22;21578;47.892;9.970;2023-07-30T11:46:10;23.00;81.30
35463;DHT22;21578;47.892;9.970;2023-07-30T11:50:57;23.20;80.40
35463;DHT22;21578;47.892;9.970;2023-07-30T11:55:45;23.00;79.00
35463;DHT22;21578;47.892;9.970;2023-07-30T12:00:32;22.60;78.80
35463;DHT22;21578;47.892;9.970;2023-07-30T12:05:31;22.30;81.50
35463;DHT22;21578;47.892;9.970;2023-07-30T12:10:19;21.90;83.00
35463;DHT22;21578;47.892;9.970;2023-07-30T12:15:10;22.00;81.80
35463;DHT22;21578;47.892;9.970;2023-07-30T12:20:00;22.70;79.90
35463;DHT22;21578;47.892;9.970;2023-07-30T12:24:53;22.90;67.10
35463;DHT22;21578;47.892;9.970;2023-07-30T12:29:40;23.30;68.70
35463;DHT22;21578;47.892;9.970;2023-07-30T12:34:28;23.60;64.60
35463;DHT22;21578;47.892;9.970;2023-07-30T12:39:15;23.70;65.50
35463;DHT22;21578;47.892;9.970;2023-07-30T12:44:03;23.90;66.30
35463;DHT22;21578;47.892;9.970;2023-07-30T16:59:49;24.90;52.80
35463;DHT22;21578;47.892;9.970;2023-07-30T17:04:36;25.10;54.20
35463;DHT22;21578;47.892;9.970;2023-07-30T17:09:23;25.10;54.20
35463;DHT22;21578;47.892;9.970;2023-07-30T17:14:10;25.20;53.90
35463;DHT22;21578;47.892;9.970;2023-07-30T17:18:58;25.00;53.70
35463;DHT22;21578;47.892;9.970;2023-07-30T17:23:45;25.00;55.30
35463;DHT22;21578;47.892;9.970;2023-07-30T17:28:32;24.90;57.90
35463;DHT22;21578;47.892;9.970;2023-07-30T17:33:22;24.20;67.00
35463;DHT22;21578;47.892;9.970;2023-07-30T23:01:47;16.00;96.60
35463;DHT22;21578;47.892;9.970;2023-07-30T23:06:34;15.90;96.60
35463;DHT22;21578;47.892;9.970;2023-07-30T23:11:21;15.90;96.60
35463;DHT22;21578;47.892;9.970;2023-07-30T23:16:07;15.90;96.60
35463;DHT22;21578;47.892;9.970;2023-07-30T23:20:56;15.80;96.60
35463;DHT22;21578;47.892;9.970;2023-07-30T23:25:43;15.70;96.60
35463;DHT22;21578;47.892;9.970;2023-07-30T23:30:29;15.70;96.60
35463;DHT22;21578;47.892;9.970;2023-07-30T23:35:16;15.60;96.60
35463;DHT22;21578;47.892;9.970;2023-07-30T23:40:06;15.50;96.60
35463;DHT22;21578;47.892;9.970;2023-07-30T23:44:53;15.50;96.60
35463;DHT22;21578;47.892;9.970;2023-07-30T23:49:40;15.40;96.60
35463;DHT22;21578;47.892;9.970;2023-07-30T23:54:27;15.40;96.60
35463;DHT22;21578;47.892;9.970;2023-07-30T23:59:15;15.40;96.60
